createdAt,value
2023-09-25T00:01:12.308Z,102571.66
2023-09-25T00:05:15.344Z,102563.75
2023-09-25T00:09:16.830Z,102571.09
2023-09-25T00:13:18.562Z,102566.81
2023-09-25T00:17:20.037Z,102570.75
2023-09-25T00:21:21.653Z,102574.34
2023-09-25T00:25:24.375Z,102573.44
2023-09-25T00:29:25.874Z,102567.06
2023-09-25T00:33:27.823Z,102571.69
2023-09-25T00:37:30.981Z,102567.22
2023-09-25T00:41:32.566Z,102569.84
2023-09-25T00:45:38.370Z,102575.56
2023-09-25T00:49:40.059Z,102568.97
2023-09-25T00:53:42.340Z,102560.13
2023-09-25T00:57:52.071Z,102571.28
2023-09-25T01:01:54.124Z,102572.03
2023-09-25T01:05:55.661Z,102573.13
2023-09-25T01:10:17.809Z,102572.88
2023-09-25T01:14:19.399Z,102567.59
2023-09-25T01:18:21.006Z,102565.53
2023-09-25T01:22:23.169Z,102561.69
2023-09-25T01:26:25.096Z,102563.94
2023-09-25T01:30:27.265Z,102565.06
2023-09-25T01:34:29.132Z,102552.91
2023-09-25T01:38:30.699Z,102561.88
2023-09-25T01:42:32.319Z,102562.13
2023-09-25T01:46:33.985Z,102556.13
2023-09-25T01:50:35.601Z,102554.94
2023-09-25T01:54:37.157Z,102550.22
2023-09-25T01:58:41.521Z,102551.13
2023-09-25T02:02:43.300Z,102545.06
2023-09-25T02:06:45.710Z,102536.22
2023-09-25T02:10:47.420Z,102548.06
2023-09-25T02:14:50.624Z,102545.34
2023-09-25T02:18:52.406Z,102540.25
2023-09-25T02:22:54.230Z,102534.59
2023-09-25T02:26:56.025Z,102535.34
2023-09-25T02:30:57.520Z,102538.97
2023-09-25T02:34:59.014Z,102534.34
2023-09-25T02:39:00.865Z,102544.09
2023-09-25T02:43:02.990Z,102545.03
2023-09-25T02:47:04.759Z,102538.75
2023-09-25T02:51:06.352Z,102551.56
2023-09-25T02:55:08.501Z,102545.06
2023-09-25T02:59:10.297Z,102536.22
2023-09-25T03:03:12.644Z,102539.06
2023-09-25T03:07:14.458Z,102540.66
2023-09-25T03:11:16.055Z,102541.50
2023-09-25T03:15:17.677Z,102545.19
2023-09-25T03:19:19.426Z,102537.91
2023-09-25T03:23:21.035Z,102530.03
2023-09-25T03:27:22.814Z,102539.97
2023-09-25T03:31:24.461Z,102548.91
2023-09-25T03:35:26.139Z,102551.47
2023-09-25T03:39:27.671Z,102551.59
2023-09-25T03:43:29.393Z,102545.50
2023-09-25T03:47:30.877Z,102555.25
2023-09-25T03:51:34.201Z,102550.75
2023-09-25T03:55:35.841Z,102548.25
2023-09-25T03:59:37.420Z,102536.91
2023-09-25T04:03:39.410Z,102535.78
2023-09-25T04:07:40.974Z,102545.50
2023-09-25T04:11:42.454Z,102542.06
2023-09-25T04:15:44.112Z,102547.25
2023-09-25T04:19:46.048Z,102546.25
2023-09-25T04:23:47.644Z,102543.94
2023-09-25T04:27:51.800Z,102552.91
2023-09-25T04:31:53.491Z,102543.59
2023-09-25T04:35:59.935Z,102540.34
2023-09-25T04:40:01.523Z,102537.56
2023-09-25T04:44:05.781Z,102534.84
2023-09-25T04:48:07.436Z,102541.00
2023-09-25T04:52:08.954Z,102538.63
2023-09-25T04:56:11.258Z,102537.53
2023-09-25T05:00:16.354Z,102541.31
2023-09-25T05:04:18.334Z,102542.88
2023-09-25T05:08:19.876Z,102541.03
2023-09-25T05:12:22.658Z,102550.97
2023-09-25T05:16:24.320Z,102558.88
2023-09-25T05:20:27.630Z,102557.88
2023-09-25T05:24:29.256Z,102549.66
2023-09-25T05:28:30.788Z,102554.16
2023-09-25T05:32:34.985Z,102563.69
2023-09-25T05:36:36.545Z,102554.88
2023-09-25T05:40:38.112Z,102550.50
2023-09-25T05:44:39.585Z,102551.88
2023-09-25T05:48:41.394Z,102557.25
2023-09-25T05:52:43.134Z,102563.19
2023-09-25T05:56:45.517Z,102558.03
2023-09-25T06:00:48.302Z,102551.44
2023-09-25T06:04:50.163Z,102550.53
2023-09-25T06:08:52.093Z,102562.41
2023-09-25T06:12:53.642Z,102567.44
2023-09-25T06:16:57.834Z,102565.41
2023-09-25T06:20:59.461Z,102567.28
2023-09-25T06:25:01.127Z,102565.06
2023-09-25T06:29:02.804Z,102572.41
2023-09-25T06:33:04.717Z,102569.91
2023-09-25T06:37:06.780Z,102579.13
2023-09-25T06:41:12.156Z,102578.84
2023-09-25T06:45:13.672Z,102575.97
2023-09-25T06:49:15.178Z,102574.16
2023-09-25T06:53:16.646Z,102563.91
2023-09-25T06:57:18.160Z,102573.13
2023-09-25T07:01:19.961Z,102566.28
2023-09-25T07:05:21.719Z,102574.06
2023-09-25T07:09:23.850Z,102570.88
2023-09-25T07:13:25.732Z,102560.66
2023-09-25T07:17:29.147Z,102561.59
2023-09-25T07:21:30.770Z,102572.69
2023-09-25T07:25:32.320Z,102570.69
2023-09-25T07:29:42.057Z,102573.84
2023-09-25T07:33:44.188Z,102576.41
2023-09-25T07:37:45.882Z,102570.88
2023-09-25T07:41:47.378Z,102574.69
2023-09-25T07:45:49.727Z,102576.94
2023-09-25T07:49:51.715Z,102588.22
2023-09-25T07:53:59.402Z,102578.03
2023-09-25T07:58:01.027Z,102576.00
2023-09-25T08:02:02.900Z,102566.06
2023-09-25T08:06:06.610Z,102572.03
2023-09-25T08:10:09.424Z,102573.22
2023-09-25T08:14:10.886Z,102574.63
2023-09-25T08:18:12.523Z,102575.28
2023-09-25T08:22:14.067Z,102579.09
2023-09-25T08:26:17.466Z,102580.03
2023-09-25T08:30:19.884Z,102582.03
2023-09-25T08:34:22.675Z,102589.34
2023-09-25T08:38:24.202Z,102580.63
2023-09-25T08:42:26.837Z,102582.16
2023-09-25T08:46:29.495Z,102577.22
2023-09-25T08:50:31.351Z,102570.47
2023-09-25T08:54:33.244Z,102573.78
2023-09-25T08:58:35.016Z,102577.31
2023-09-25T09:02:37.127Z,102571.66
2023-09-25T09:06:39.053Z,102567.44
2023-09-25T09:10:41.302Z,102574.28
2023-09-25T09:14:44.422Z,102568.59
2023-09-25T09:18:47.473Z,102567.44
2023-09-25T09:22:53.362Z,102558.13
2023-09-25T09:26:54.847Z,102558.50
2023-09-25T09:30:57.610Z,102550.13
2023-09-25T09:35:00.203Z,102552.44
2023-09-25T09:39:04.658Z,102541.78
2023-09-25T09:43:07.982Z,102549.38
2023-09-25T09:47:09.995Z,102552.38
2023-09-25T09:55:15.401Z,102546.16
2023-09-25T09:59:18.156Z,102536.63
2023-09-25T10:03:20.035Z,102556.94
2023-09-25T10:07:21.742Z,102547.66
2023-09-25T10:11:24.663Z,102542.00
2023-09-25T10:15:26.808Z,102530.06
2023-09-25T10:19:37.667Z,102526.81
2023-09-25T10:23:47.749Z,102529.44
2023-09-25T10:27:49.713Z,102528.75
2023-09-25T10:31:51.359Z,102533.97
2023-09-25T10:36:02.432Z,102529.69
2023-09-25T10:40:04.744Z,102530.56
2023-09-25T10:44:06.774Z,102516.34
2023-09-25T10:48:08.526Z,102525.19
2023-09-25T10:52:10.085Z,102522.84
2023-09-25T10:56:12.429Z,102528.75
2023-09-25T11:00:16.469Z,102525.03
2023-09-25T11:04:18.388Z,102516.38
2023-09-25T11:08:22.222Z,102502.63
2023-09-25T11:12:23.841Z,102503.16
2023-09-25T11:16:26.428Z,102499.72
2023-09-25T11:20:31.455Z,102487.09
2023-09-25T11:24:34.530Z,102484.00
2023-09-25T11:28:36.093Z,102488.88
2023-09-25T11:32:37.730Z,102481.66
2023-09-25T11:36:45.911Z,102474.16
2023-09-25T11:40:47.820Z,102467.38
2023-09-25T11:44:49.517Z,102471.94
2023-09-25T11:48:51.237Z,102476.78
2023-09-25T11:52:53.679Z,102477.56
2023-09-25T11:56:55.190Z,102479.75
2023-09-25T12:00:56.829Z,102469.28
2023-09-25T12:04:59.537Z,102467.41
2023-09-25T12:09:11.835Z,102470.28
2023-09-25T12:13:13.365Z,102465.56
2023-09-25T12:17:17.460Z,102464.53
2023-09-25T12:21:20.615Z,102452.25
2023-09-25T12:25:23.296Z,102442.78
2023-09-25T12:29:25.157Z,102438.53
2023-09-25T12:33:26.684Z,102443.81
2023-09-25T12:37:29.993Z,102434.47
2023-09-25T12:41:32.401Z,102427.00
2023-09-25T12:45:34.006Z,102418.47
2023-09-25T12:49:35.583Z,102415.09
2023-09-25T12:53:37.136Z,102410.81
2023-09-25T12:57:39.192Z,102412.53
2023-09-25T13:01:40.848Z,102399.81
2023-09-25T13:05:43.339Z,102398.47
2023-09-25T13:09:44.905Z,102398.19
2023-09-25T13:13:46.429Z,102392.72
2023-09-25T13:17:50.843Z,102379.38
2023-09-25T13:21:52.539Z,102374.72
2023-09-25T13:25:54.070Z,102380.97
2023-09-25T13:29:55.604Z,102377.59
2023-09-25T13:33:57.106Z,102363.88
2023-09-25T13:37:58.638Z,102359.22
2023-09-25T13:42:00.156Z,102356.69
2023-09-25T13:46:02.218Z,102358.78
2023-09-25T13:50:03.900Z,102361.59
2023-09-25T13:54:05.623Z,102360.25
2023-09-25T13:58:07.264Z,102378.22
2023-09-25T14:02:08.820Z,102376.06
2023-09-25T14:06:10.855Z,102374.25
2023-09-25T14:10:14.808Z,102373.56
2023-09-25T14:14:16.631Z,102370.75
2023-09-25T14:18:18.893Z,102372.09
2023-09-25T14:22:21.107Z,102366.69
2023-09-25T14:26:22.843Z,102364.22
2023-09-25T14:30:24.388Z,102366.88
2023-09-25T14:34:26.149Z,102371.50
2023-09-25T14:38:27.702Z,102376.72
2023-09-25T14:42:33.838Z,102380.81
2023-09-25T14:46:35.697Z,102374.06
2023-09-25T14:50:37.736Z,102381.59
2023-09-25T14:54:39.273Z,102387.13
2023-09-25T14:58:41.560Z,102392.47
2023-09-25T15:02:43.584Z,102388.63
2023-09-25T15:06:45.492Z,102392.53
2023-09-25T15:10:47.429Z,102395.41
2023-09-25T15:14:48.882Z,102386.16
2023-09-25T15:18:50.546Z,102393.09
2023-09-25T15:22:52.402Z,102399.63
2023-09-25T15:26:54.065Z,102393.41
2023-09-25T15:30:55.654Z,102389.50
2023-09-25T15:34:57.216Z,102385.00
2023-09-25T15:38:58.949Z,102389.19
2023-09-25T15:43:00.598Z,102379.56
2023-09-25T15:47:02.265Z,102365.16
2023-09-25T15:51:03.815Z,102370.56
2023-09-25T15:55:05.958Z,102373.63
2023-09-25T15:59:07.472Z,102365.72
2023-09-25T16:03:09.024Z,102362.63
2023-09-25T16:07:10.606Z,102354.09
2023-09-25T16:11:12.416Z,102359.22
2023-09-25T16:15:13.894Z,102363.50
2023-09-25T16:19:16.703Z,102341.53
2023-09-25T16:23:18.360Z,102343.16
2023-09-25T16:27:20.173Z,102351.59
2023-09-25T16:31:22.153Z,102356.91
2023-09-25T16:35:24.001Z,102351.19
2023-09-25T16:39:29.692Z,102358.88
2023-09-25T16:43:34.857Z,102364.56
2023-09-25T16:47:36.420Z,102359.78
2023-09-25T16:51:38.082Z,102369.88
2023-09-25T16:55:46.852Z,102380.69
2023-09-25T16:59:51.303Z,102388.28
2023-09-25T17:03:53.071Z,102389.88
2023-09-25T17:07:55.323Z,102393.22
2023-09-25T17:11:56.850Z,102377.84
2023-09-25T17:15:59.043Z,102388.09
2023-09-25T17:20:00.793Z,102377.69
2023-09-25T17:24:02.257Z,102377.50
2023-09-25T17:28:07.181Z,102384.88
2023-09-25T17:32:09.000Z,102384.44
2023-09-25T17:36:10.586Z,102384.63
2023-09-25T17:40:13.019Z,102382.22
2023-09-25T17:44:14.564Z,102388.16
2023-09-25T17:48:16.076Z,102385.84
2023-09-25T17:52:24.177Z,102383.53
2023-09-25T17:56:26.743Z,102381.25
2023-09-25T18:00:28.367Z,102371.22
2023-09-25T18:04:30.018Z,102368.38
2023-09-25T18:08:31.911Z,102367.53
2023-09-25T18:12:36.140Z,102372.00
2023-09-25T18:16:40.242Z,102378.19
2023-09-25T18:20:41.848Z,102377.78
2023-09-25T18:24:43.564Z,102382.28
2023-09-25T18:28:45.521Z,102387.91
2023-09-25T18:32:47.035Z,102398.16
2023-09-25T18:36:48.781Z,102395.81
2023-09-25T18:40:50.374Z,102404.78
2023-09-25T18:44:51.998Z,102405.78
2023-09-25T18:48:53.548Z,102400.84
2023-09-25T18:52:55.024Z,102396.34
2023-09-25T18:56:56.561Z,102392.94
2023-09-25T19:00:58.109Z,102402.53
2023-09-25T19:04:59.956Z,102397.53
2023-09-25T19:09:01.847Z,102404.06
2023-09-25T19:13:04.009Z,102404.34
2023-09-25T19:17:05.739Z,102407.59
2023-09-25T19:21:07.785Z,102405.94
2023-09-25T19:25:10.660Z,102403.66
2023-09-25T19:29:12.307Z,102404.03
2023-09-25T19:33:13.916Z,102402.78
2023-09-25T19:37:15.585Z,102402.03
2023-09-25T19:41:17.259Z,102397.16
2023-09-25T19:45:18.815Z,102396.63
2023-09-25T19:49:20.579Z,102402.75
2023-09-25T19:53:22.158Z,102409.13
2023-09-25T19:57:24.593Z,102406.28
2023-09-25T20:01:26.514Z,102407.41
2023-09-25T20:05:29.838Z,102404.25
2023-09-25T20:09:31.534Z,102400.38
2023-09-25T20:13:33.151Z,102402.53
2023-09-25T20:17:35.027Z,102390.50
2023-09-25T20:21:36.556Z,102399.63
2023-09-25T20:25:38.115Z,102398.88
2023-09-25T20:29:39.634Z,102390.81
2023-09-25T20:33:41.298Z,102394.50
2023-09-25T20:37:43.039Z,102394.69
2023-09-25T20:41:44.661Z,102393.34
2023-09-25T20:45:46.176Z,102394.22
2023-09-25T20:49:47.995Z,102395.88
2023-09-25T20:53:49.658Z,102395.91
2023-09-25T20:57:51.378Z,102403.25
2023-09-25T21:01:52.917Z,102389.41
2023-09-25T21:05:54.452Z,102403.59
2023-09-25T21:09:56.249Z,102402.09
2023-09-25T21:13:57.915Z,102396.88
2023-09-25T21:17:59.487Z,102401.47
2023-09-25T21:22:01.068Z,102409.03
2023-09-25T21:26:02.633Z,102407.94
2023-09-25T21:30:04.747Z,102401.94
2023-09-25T21:34:06.290Z,102403.00
2023-09-25T21:38:08.277Z,102400.78
2023-09-25T21:42:11.822Z,102390.28
2023-09-25T21:46:13.586Z,102392.38
2023-09-25T21:50:15.219Z,102389.53
2023-09-25T21:54:17.430Z,102385.78
2023-09-25T21:58:19.551Z,102395.38
2023-09-25T22:02:21.345Z,102389.41
2023-09-25T22:06:25.348Z,102391.03
2023-09-25T22:10:27.160Z,102384.19
2023-09-25T22:14:29.690Z,102382.47
2023-09-25T22:18:31.418Z,102384.53
2023-09-25T22:22:33.589Z,102371.25
2023-09-25T22:26:35.192Z,102372.16
2023-09-25T22:30:36.727Z,102371.16
2023-09-25T22:34:38.510Z,102374.63
2023-09-25T22:38:40.831Z,102365.31
2023-09-25T22:42:42.952Z,102361.25
2023-09-25T22:46:44.621Z,102353.75
2023-09-25T22:50:46.177Z,102363.78
2023-09-25T22:54:47.748Z,102360.97
2023-09-25T22:58:49.360Z,102359.75
2023-09-25T23:02:53.448Z,102363.72
2023-09-25T23:06:55.558Z,102359.09
2023-09-25T23:10:57.265Z,102363.44
2023-09-25T23:15:00.890Z,102370.84
2023-09-25T23:19:02.415Z,102366.53
2023-09-25T23:23:04.091Z,102362.63
2023-09-25T23:27:05.643Z,102363.72
2023-09-25T23:31:07.210Z,102369.97
2023-09-25T23:35:10.261Z,102365.31
2023-09-25T23:39:13.526Z,102362.66
2023-09-25T23:43:15.536Z,102366.41
2023-09-25T23:47:17.082Z,102354.38
2023-09-25T23:51:18.686Z,102354.16
2023-09-25T23:55:20.850Z,102346.28
2023-09-25T23:59:22.414Z,102352.84
